createdAt,value
2023-04-23T00:00:49.872Z,24.05
2023-04-23T00:05:47.847Z,24.57
2023-04-23T00:10:44.371Z,24.20
2023-04-23T00:15:40.910Z,23.33
2023-04-23T00:20:37.322Z,24.08
2023-04-23T00:25:33.663Z,24.17
2023-04-23T00:30:30.113Z,24.75
2023-04-23T00:35:26.564Z,25.65
2023-04-23T00:40:23.745Z,24.92
2023-04-23T00:45:20.602Z,24.33
2023-04-23T00:50:16.981Z,24.35
2023-04-23T00:55:13.353Z,24.17
2023-04-23T01:00:11.555Z,25.13
2023-04-23T01:05:09.548Z,25.85
2023-04-23T01:10:06.737Z,27.35
2023-04-23T01:15:03.845Z,27.15
2023-04-23T01:20:00.536Z,28.02
2023-04-23T01:24:57.363Z,28.42
2023-04-23T01:29:54.335Z,29.35
2023-04-23T01:34:51.920Z,30.52
2023-04-23T01:39:48.790Z,29.03
2023-04-23T01:44:45.153Z,29.98
2023-04-23T01:49:41.613Z,30.23
2023-04-23T01:54:38.016Z,30.40
2023-04-23T01:59:34.501Z,30.25
2023-04-23T02:04:31.633Z,31.23
2023-04-23T02:09:28.112Z,31.35
2023-04-23T02:14:24.464Z,28.55
2023-04-23T02:19:20.806Z,28.48
2023-04-23T02:24:17.109Z,28.80
2023-04-23T02:29:13.456Z,29.73
2023-04-23T02:34:09.812Z,28.50
2023-04-23T02:39:06.402Z,28.50
2023-04-23T02:44:02.749Z,28.23
2023-04-23T02:48:59.143Z,26.02
2023-04-23T02:53:55.661Z,26.48
2023-04-23T02:58:52.000Z,26.00
2023-04-23T03:03:48.939Z,26.25
2023-04-23T03:08:45.980Z,28.10
2023-04-23T03:13:42.489Z,29.60
2023-04-23T03:18:39.270Z,29.00
2023-04-23T03:23:36.202Z,29.75
2023-04-23T03:28:32.848Z,29.20
2023-04-23T03:33:29.168Z,27.80
2023-04-23T03:38:25.961Z,30.77
2023-04-23T03:43:22.431Z,28.75
2023-04-23T03:48:18.807Z,31.50
2023-04-23T03:53:15.190Z,29.20
2023-04-23T03:58:11.795Z,29.58
2023-04-23T04:03:09.127Z,30.13
2023-04-23T04:08:05.626Z,27.95
2023-04-23T04:13:01.971Z,26.10
2023-04-23T04:17:58.703Z,26.27
2023-04-23T04:22:55.565Z,26.27
2023-04-23T04:27:51.904Z,25.70
2023-04-23T04:32:50.776Z,25.58
2023-04-23T04:37:47.326Z,25.70
2023-04-23T04:42:43.682Z,25.33
2023-04-23T04:47:40.112Z,25.85
2023-04-23T04:52:37.040Z,26.92
2023-04-23T04:57:33.388Z,27.13
2023-04-23T05:02:29.828Z,28.17
2023-04-23T05:07:26.324Z,25.60
2023-04-23T05:12:22.640Z,25.98
2023-04-23T05:17:18.967Z,26.35
2023-04-23T05:22:15.694Z,23.48
2023-04-23T05:27:11.995Z,24.48
2023-04-23T05:32:08.345Z,25.60
2023-04-23T05:37:04.930Z,21.45
2023-04-23T05:42:02.182Z,22.80
2023-04-23T05:46:58.561Z,27.00
2023-04-23T05:51:55.233Z,27.35
2023-04-23T05:56:52.850Z,29.38
2023-04-23T06:01:51.094Z,29.73
2023-04-23T06:06:47.456Z,30.95
2023-04-23T06:11:43.869Z,29.95
2023-04-23T06:16:40.234Z,29.63
2023-04-23T06:21:36.565Z,30.75
2023-04-23T06:26:33.368Z,29.90
2023-04-23T06:31:30.174Z,28.13
2023-04-23T06:36:26.710Z,23.95
2023-04-23T06:41:23.030Z,25.65
2023-04-23T06:46:19.641Z,25.58
2023-04-23T06:51:16.852Z,25.20
2023-04-23T06:56:13.285Z,21.48
2023-04-23T07:01:10.339Z,20.92
2023-04-23T07:06:06.985Z,19.98
2023-04-23T07:11:03.305Z,20.00
2023-04-23T07:15:59.632Z,20.92
2023-04-23T07:20:56.006Z,18.60
2023-04-23T07:25:52.297Z,17.73
2023-04-23T07:30:49.083Z,15.98
2023-04-23T07:35:45.657Z,15.43
2023-04-23T07:40:42.032Z,13.70
2023-04-23T07:45:38.355Z,14.93
2023-04-23T07:50:34.858Z,13.98
2023-04-23T07:55:31.277Z,13.13
2023-04-23T08:00:27.580Z,13.23
2023-04-23T08:05:24.004Z,13.52
2023-04-23T08:10:20.419Z,13.35
2023-04-23T08:15:16.826Z,15.43
2023-04-23T08:20:13.127Z,14.43
2023-04-23T08:25:10.085Z,14.18
2023-04-23T08:30:08.599Z,12.10
2023-04-23T08:35:05.361Z,16.55
2023-04-23T08:40:01.838Z,10.13
2023-04-23T08:44:58.187Z,8.88
2023-04-23T08:49:55.773Z,9.10
2023-04-23T08:54:59.930Z,8.95
2023-04-23T08:59:57.048Z,8.57
2023-04-23T09:04:56.100Z,8.27
2023-04-23T09:09:52.843Z,8.25
2023-04-23T09:14:51.142Z,6.80
2023-04-23T09:19:47.551Z,6.47
2023-04-23T09:24:43.986Z,7.55
2023-04-23T09:29:44.504Z,7.50
2023-04-23T09:34:41.163Z,6.35
2023-04-23T09:39:39.494Z,6.18
2023-04-23T09:44:36.225Z,6.03
2023-04-23T09:49:32.587Z,5.72
2023-04-23T09:54:30.041Z,5.68
2023-04-23T09:59:45.964Z,5.40
2023-04-23T10:04:44.128Z,4.45
2023-04-23T10:09:41.826Z,4.43
2023-04-23T10:14:39.209Z,4.43
2023-04-23T10:19:41.437Z,4.50
2023-04-23T10:24:41.476Z,4.13
2023-04-23T10:29:38.312Z,4.07
2023-04-23T10:34:34.869Z,3.33
2023-04-23T10:39:33.982Z,3.72
2023-04-23T10:44:57.438Z,3.78
2023-04-23T10:49:55.621Z,3.35
2023-04-23T10:54:59.896Z,3.13
2023-04-23T10:59:58.627Z,2.72
2023-04-23T11:04:58.957Z,2.90
2023-04-23T11:09:59.348Z,3.10
2023-04-23T11:14:56.965Z,2.75
2023-04-23T11:20:20.661Z,3.65
2023-04-23T11:25:22.361Z,2.88
2023-04-23T11:30:23.905Z,2.70
2023-04-23T11:35:29.226Z,2.50
2023-04-23T11:40:25.937Z,1.50
2023-04-23T11:45:28.299Z,2.13
2023-04-23T11:50:30.685Z,1.90
2023-04-23T11:55:28.845Z,1.38
2023-04-23T12:00:26.975Z,1.60
2023-04-23T12:05:29.481Z,1.48
2023-04-23T12:10:25.923Z,1.75
2023-04-23T12:15:22.355Z,2.05
2023-04-23T12:20:21.135Z,1.70
2023-04-23T12:25:23.054Z,1.48
2023-04-23T12:30:19.519Z,1.80
2023-04-23T12:35:15.928Z,1.70
2023-04-23T12:40:12.480Z,1.30
2023-04-23T12:45:09.980Z,1.30
2023-04-23T12:50:06.976Z,1.15
2023-04-23T12:55:05.280Z,1.10
2023-04-23T13:00:02.205Z,1.17
2023-04-23T13:05:01.058Z,1.47
2023-04-23T13:09:59.399Z,1.15
2023-04-23T13:14:56.519Z,1.40
2023-04-23T13:19:55.950Z,1.05
2023-04-23T13:24:52.258Z,1.00
2023-04-23T13:29:48.561Z,0.75
2023-04-23T13:34:45.001Z,0.80
2023-04-23T13:39:41.951Z,0.65
2023-04-23T13:44:38.490Z,0.50
2023-04-23T13:49:34.937Z,0.98
2023-04-23T13:54:31.410Z,0.55
2023-04-23T13:59:27.847Z,0.55
2023-04-23T14:04:24.318Z,0.70
2023-04-23T14:09:22.356Z,1.25
2023-04-23T14:14:18.953Z,0.82
2023-04-23T14:19:15.430Z,0.90
2023-04-23T14:24:50.034Z,0.90
2023-04-23T14:29:51.964Z,1.13
2023-04-23T14:34:48.241Z,1.10
2023-04-23T14:39:44.885Z,1.48
2023-04-23T14:44:41.420Z,1.27
2023-04-23T14:49:37.718Z,1.10
2023-04-23T14:54:36.154Z,1.20
2023-04-23T14:59:32.423Z,1.00
2023-04-23T15:04:28.885Z,1.00
2023-04-23T15:09:25.333Z,1.00
2023-04-23T15:14:30.436Z,0.95
2023-04-23T15:19:26.807Z,1.10
2023-04-23T15:24:23.111Z,1.15
2023-04-23T15:29:19.586Z,0.80
2023-04-23T15:34:15.877Z,1.05
2023-04-23T15:39:12.223Z,1.15
2023-04-23T15:44:10.999Z,0.80
2023-04-23T15:49:07.426Z,1.33
2023-04-23T15:54:07.894Z,1.10
2023-04-23T15:59:04.282Z,1.17
2023-04-23T16:04:10.183Z,1.17
2023-04-23T16:09:08.081Z,1.07
2023-04-23T16:14:06.010Z,1.02
2023-04-23T16:19:02.945Z,0.95
2023-04-23T16:23:59.427Z,1.17
2023-04-23T16:29:16.550Z,1.77
2023-04-23T16:34:12.785Z,1.20
2023-04-23T16:39:09.138Z,1.30
2023-04-23T16:44:05.433Z,1.23
2023-04-23T16:49:02.191Z,1.23
2023-04-23T16:53:58.491Z,1.48
2023-04-23T16:58:54.930Z,1.10
2023-04-23T17:03:51.368Z,1.00
2023-04-23T17:08:47.802Z,0.90
2023-04-23T17:13:44.163Z,1.83
2023-04-23T17:18:40.990Z,1.00
2023-04-23T17:23:37.680Z,1.30
2023-04-23T17:28:34.012Z,0.80
2023-04-23T17:33:30.859Z,1.20
2023-04-23T17:38:28.386Z,1.33
2023-04-23T17:43:24.740Z,0.95
2023-04-23T17:48:23.104Z,1.20
2023-04-23T17:53:19.567Z,1.38
2023-04-23T17:58:16.460Z,1.40
2023-04-23T18:03:16.576Z,1.20
2023-04-23T18:08:16.134Z,0.95
2023-04-23T18:13:13.397Z,1.35
2023-04-23T18:18:09.894Z,1.73
2023-04-23T18:23:06.657Z,1.30
2023-04-23T18:28:03.130Z,1.25
2023-04-23T18:33:07.142Z,1.58
2023-04-23T18:38:11.246Z,3.75
2023-04-23T18:43:07.638Z,1.70
2023-04-23T18:48:37.638Z,1.50
2023-04-23T18:53:37.047Z,2.50
2023-04-23T18:58:33.340Z,2.80
2023-04-23T19:03:30.334Z,3.50
2023-04-23T19:08:29.632Z,3.63
2023-04-23T19:13:26.623Z,3.22
2023-04-23T19:18:23.000Z,2.45
2023-04-23T19:23:19.849Z,3.40
2023-04-23T19:28:16.180Z,3.80
2023-04-23T19:33:12.539Z,2.50
2023-04-23T19:38:09.453Z,2.50
2023-04-23T19:43:06.024Z,1.77
2023-04-23T19:48:04.552Z,2.40
2023-04-23T19:53:01.121Z,2.13
2023-04-23T19:57:58.457Z,1.98
2023-04-23T20:02:55.736Z,2.78
2023-04-23T20:07:52.488Z,3.00
2023-04-23T20:12:49.021Z,2.10
2023-04-23T20:17:45.938Z,2.15
2023-04-23T20:22:42.239Z,1.90
2023-04-23T20:27:38.584Z,1.83
2023-04-23T20:32:34.952Z,1.85
2023-04-23T20:37:31.323Z,1.77
2023-04-23T20:42:29.050Z,1.38
2023-04-23T20:47:25.419Z,1.58
2023-04-23T20:52:21.762Z,1.60
2023-04-23T20:57:18.058Z,1.58
2023-04-23T21:02:15.192Z,1.27
2023-04-23T21:07:11.674Z,1.50
2023-04-23T21:12:07.962Z,2.05
2023-04-23T21:17:04.245Z,1.40
2023-04-23T21:22:00.727Z,1.38
2023-04-23T21:26:57.025Z,1.60
2023-04-23T21:31:53.407Z,1.73
2023-04-23T21:36:49.829Z,1.58
2023-04-23T21:41:47.093Z,1.60
2023-04-23T21:46:44.770Z,1.38
2023-04-23T21:51:41.179Z,2.70
2023-04-23T21:56:38.079Z,1.20
2023-04-23T22:01:36.815Z,1.83
2023-04-23T22:06:34.365Z,1.50
2023-04-23T22:11:31.294Z,1.53
2023-04-23T22:16:29.092Z,1.70
2023-04-23T22:21:25.736Z,1.10
2023-04-23T22:26:22.156Z,1.00
2023-04-23T22:31:18.589Z,1.00
2023-04-23T22:36:15.053Z,1.27
2023-04-23T22:41:11.981Z,1.02
2023-04-23T22:46:08.412Z,0.95
2023-04-23T22:51:05.253Z,0.93
2023-04-23T22:56:01.983Z,0.75
2023-04-23T23:00:58.533Z,0.52
2023-04-23T23:05:55.003Z,0.50
2023-04-23T23:10:51.364Z,0.70
2023-04-23T23:15:47.806Z,0.50
2023-04-23T23:20:45.188Z,0.70
2023-04-23T23:25:41.599Z,0.60
2023-04-23T23:30:38.145Z,0.60
2023-04-23T23:35:34.518Z,0.70
2023-04-23T23:40:31.106Z,0.70
2023-04-23T23:45:27.521Z,0.85
2023-04-23T23:50:24.003Z,0.28
2023-04-23T23:55:20.445Z,0.30
